Seven Seas Mariner — C6VV8 — position and weather

sailwx.info

Track history (hours):
 
Tides and Currents Weather Stations Pressure Air Temp Water Temp Dewpoint Dewpoint Depression Visibility Wind Speed Wind Dir Waves Ship Positions

Seven Seas Mariner

Last reported at 2017-Aug-19 03:00 UTC. Time now 2017-Aug-20 13:40 UTC.
Position N 56°48' W 135°36'.

Length 215 m.

Type: Ship. MMSI: 311622000.

Wind from 250 at 19 knots

Barometer 1016.2 mb
Air temperature 16.0 ° C
Visibility: greater than 5.4 NM
Dewpoint 12.7 ° C
Water temperature 16.0 ° C

Date/timePositionNaut miles runAvg speedWind from/ knotsBaromVisibWave heightAir tempDewpointWater temp
2017-Aug-19 03:00N 56°48' W 135°36'31412.6 250 / 191016.2 5.4 16.012.716.0
2017-Aug-18 02:00N 59°30' W 144°06'   180 / 181003.7 5.4 12.0 8.312.0
2017-Aug-14 07:36N 58°18' W 136°15'219.4
2017-Aug-14 07:30N 58°19' W 136°11'918.8
2017-Aug-14 07:00N 58°19' W 135°53'1019.6
2017-Aug-14 06:28N 58°16' W 135°34'4613.1
2017-Aug-14 03:00N 59°00' W 135°12'   360 / 161004.2 5.4 15.013.315.0
2017-Aug-11 15:00N 55°18' W 131°36'16712.2 090 / 91014.3 0.5 12.010.212.0
2017-Aug-11 01:16N 52°37' W 130°22'415.2
2017-Aug-11 01:00N 52°33' W 130°20'815.2
2017-Aug-11 00:30N 52°26' W 130°15'815.7
2017-Aug-11 00:01N 52°19' W 130°11'815.6
2017-Aug-10 23:31N 52°11' W 130°07'815.2
2017-Aug-10 22:57N 52°03' W 130°02'715.3
2017-Aug-10 22:30N 51°57' W 129°57'815.8
2017-Aug-10 22:00N 51°50' W 129°52'815.6
2017-Aug-10 21:31N 51°45' W 129°42'1015.3
2017-Aug-10 20:53N 51°39' W 129°30'614.8
2017-Aug-10 20:30N 51°36' W 129°23'814.9
2017-Aug-10 19:59N 51°31' W 129°13'715.1
2017-Aug-10 19:31N 51°27' W 129°04'815.4
2017-Aug-10 19:01N 51°22' W 128°54'815.3
2017-Aug-10 18:31N 51°18' W 128°44'815.6
2017-Aug-10 18:01N 51°13' W 128°34'815.6
2017-Aug-10 17:31N 51°09' W 128°23'815.5
2017-Aug-10 17:00N 51°06' W 128°12'815.4
2017-Aug-10 16:30N 51°03' W 128°01'815.8
2017-Aug-10 16:01N 50°60' W 127°49'714.0
2017-Aug-10 15:30N 50°56' W 127°40'815.5
2017-Aug-10 15:00N 50°51' W 127°30'714.3
2017-Aug-10 14:30N 50°48' W 127°20'714.3
2017-Aug-10 14:00N 50°45' W 127°10'816.0
2017-Aug-10 13:30N 50°42' W 126°58'1018.3
2017-Aug-10 12:59N 50°37' W 126°45'1114.3
2017-Aug-10 12:11N 50°30' W 126°31'517.3
2017-Aug-10 11:53N 50°30' W 126°23'1017.7
2017-Aug-10 11:18N 50°28' W 126°06'816.7
2017-Aug-10 10:48N 50°24' W 125°55'515.3
2017-Aug-10 10:26N 50°23' W 125°47'1316.6
2017-Aug-10 09:41N 50°20' W 125°27'213.2
2017-Aug-10 09:30N 50°18' W 125°25'816.4
2017-Aug-10 09:01N 50°11' W 125°22'611.6
2017-Aug-10 08:30N 50°06' W 125°17'611.9
2017-Aug-10 08:00N 50°00' W 125°13'612.9
2017-Aug-10 07:31N 49°56' W 125°06'713.1
2017-Aug-10 07:00N 49°51' W 124°58'612.3
2017-Aug-10 06:31N 49°47' W 124°52'612.7
2017-Aug-10 06:01N 49°42' W 124°45'612.6
2017-Aug-10 05:30N 49°37' W 124°39'612.9
2017-Aug-10 05:01N 49°32' W 124°33'612.5
2017-Aug-10 04:30N 49°28' W 124°25'712.6
2017-Aug-10 03:58N 49°25' W 124°16'612.6
2017-Aug-10 03:30N 49°24' W 124°07'812.5
2017-Aug-10 02:53N 49°22' W 123°56'512.7
2017-Aug-10 02:30N 49°22' W 123°48'712.9
2017-Aug-10 01:59N 49°22' W 123°38'612.8
2017-Aug-10 01:30N 49°20' W 123°29'612.8
2017-Aug-10 01:00N 49°19' W 123°19'612.8
2017-Aug-10 00:30N 49°19' W 123°09'3 5.4
2017-Aug-10 00:01N 49°17' W 123°06'0 0.2
2017-Aug-09 23:30N 49°17' W 123°07'0 0.0
2017-Aug-09 23:00N 49°17' W 123°07'0 0.0
2017-Aug-09 22:30N 49°17' W 123°07'0 0.0
2017-Aug-09 21:59N 49°17' W 123°07'0 0.0
2017-Aug-09 21:29N 49°17' W 123°07'0 0.0
2017-Aug-09 20:59N 49°17' W 123°07'0 0.0
2017-Aug-09 20:29N 49°17' W 123°07'0 0.0
2017-Aug-09 19:59N 49°17' W 123°07'0 0.0
2017-Aug-09 19:28N 49°17' W 123°07'0 0.0
2017-Aug-09 18:58N 49°17' W 123°07'0 0.0
2017-Aug-09 18:28N 49°17' W 123°07'0 0.0
2017-Aug-09 17:58N 49°17' W 123°07'0 0.0
2017-Aug-09 17:28N 49°17' W 123°07'0 0.0
2017-Aug-09 17:00N 49°17' W 123°07'0 0.0
2017-Aug-09 16:30N 49°17' W 123°07'0 0.0
2017-Aug-09 16:00N 49°17' W 123°07'0 0.0
2017-Aug-09 15:30N 49°17' W 123°07'0 0.0
2017-Aug-09 14:59N 49°17' W 123°07'0 0.0
2017-Aug-09 14:29N 49°17' W 123°07'0 0.0
2017-Aug-09 14:00N 49°17' W 123°07'0 0.9
2017-Aug-09 13:31N 49°18' W 123°06'4 7.3
2017-Aug-09 13:00N 49°19' W 123°12'5 9.1
2017-Aug-09 12:30N 49°18' W 123°19'5 9.3
2017-Aug-09 12:01N 49°19' W 123°26'5 9.3
2017-Aug-09 11:31N 49°19' W 123°33'5 9.2
2017-Aug-09 11:01N 49°19' W 123°40'5 9.2
2017-Aug-09 10:31N 49°20' W 123°47'5 9.3
2017-Aug-09 10:00N 49°21' W 123°54'4 9.1
2017-Aug-09 09:31N 49°22' W 124°00'5 9.2
2017-Aug-09 09:00N 49°23' W 124°07'4 7.1
2017-Aug-09 08:25N 49°24' W 124°13'2 5.8
2017-Aug-09 08:00N 49°25' W 124°17'3 6.3
2017-Aug-09 07:30N 49°26' W 124°22'3 6.4
2017-Aug-09 07:00N 49°28' W 124°26'4 8.7
2017-Aug-09 06:30N 49°31' W 124°31'5 9.5
2017-Aug-09 06:00N 49°34' W 124°35'5 9.7
2017-Aug-09 05:30N 49°38' W 124°40'5 9.5
2017-Aug-09 05:00N 49°41' W 124°45'5 9.6
2017-Aug-09 04:31N 49°45' W 124°50'510.2
2017-Aug-09 04:00N 49°49' W 124°56'611.9
2017-Aug-09 03:28N 49°53' W 125°03'612.9
2017-Aug-09 03:01N 49°57' W 125°09'  
Track history (hours):
 
Tides and Currents Weather Stations Pressure Air Temp Water Temp Dewpoint Dewpoint Depression Visibility Wind Speed Wind Dir Waves Ship Positions

Seven Seas Mariner

Last reported at 2017-Aug-19 03:00 UTC. Time now 2017-Aug-20 13:40 UTC.
Position N 56°48' W 135°36'.

Length 215 m.

Type: Ship. MMSI: 311622000.

Wind from 250 at 19 knots

Barometer 1016.2 mb
Air temperature 16.0 ° C
Visibility: greater than 5.4 NM
Dewpoint 12.7 ° C
Water temperature 16.0 ° C

Date/timePositionNaut miles runAvg speedWind from/ knotsBaromVisibWave heightAir tempDewpointWater temp
2017-Aug-19 03:00N 56°48' W 135°36'31412.6 250 / 191016.2 5.4 16.012.716.0
2017-Aug-18 02:00N 59°30' W 144°06'   180 / 181003.7 5.4 12.0 8.312.0
2017-Aug-14 07:36N 58°18' W 136°15'219.4
2017-Aug-14 07:30N 58°19' W 136°11'918.8
2017-Aug-14 07:00N 58°19' W 135°53'1019.6
2017-Aug-14 06:28N 58°16' W 135°34'4613.1
2017-Aug-14 03:00N 59°00' W 135°12'   360 / 161004.2 5.4 15.013.315.0
2017-Aug-11 15:00N 55°18' W 131°36'16712.2 090 / 91014.3 0.5 12.010.212.0
2017-Aug-11 01:16N 52°37' W 130°22'415.2
2017-Aug-11 01:00N 52°33' W 130°20'815.2
2017-Aug-11 00:30N 52°26' W 130°15'815.7
2017-Aug-11 00:01N 52°19' W 130°11'815.6
2017-Aug-10 23:31N 52°11' W 130°07'815.2
2017-Aug-10 22:57N 52°03' W 130°02'715.3
2017-Aug-10 22:30N 51°57' W 129°57'815.8
2017-Aug-10 22:00N 51°50' W 129°52'815.6
2017-Aug-10 21:31N 51°45' W 129°42'1015.3
2017-Aug-10 20:53N 51°39' W 129°30'614.8
2017-Aug-10 20:30N 51°36' W 129°23'814.9
2017-Aug-10 19:59N 51°31' W 129°13'715.1
2017-Aug-10 19:31N 51°27' W 129°04'815.4
2017-Aug-10 19:01N 51°22' W 128°54'815.3
2017-Aug-10 18:31N 51°18' W 128°44'815.6
2017-Aug-10 18:01N 51°13' W 128°34'815.6
2017-Aug-10 17:31N 51°09' W 128°23'815.5
2017-Aug-10 17:00N 51°06' W 128°12'815.4
2017-Aug-10 16:30N 51°03' W 128°01'815.8
2017-Aug-10 16:01N 50°60' W 127°49'714.0
2017-Aug-10 15:30N 50°56' W 127°40'815.5
2017-Aug-10 15:00N 50°51' W 127°30'714.3
2017-Aug-10 14:30N 50°48' W 127°20'714.3
2017-Aug-10 14:00N 50°45' W 127°10'816.0
2017-Aug-10 13:30N 50°42' W 126°58'1018.3
2017-Aug-10 12:59N 50°37' W 126°45'1114.3
2017-Aug-10 12:11N 50°30' W 126°31'517.3
2017-Aug-10 11:53N 50°30' W 126°23'1017.7
2017-Aug-10 11:18N 50°28' W 126°06'816.7
2017-Aug-10 10:48N 50°24' W 125°55'515.3
2017-Aug-10 10:26N 50°23' W 125°47'1316.6
2017-Aug-10 09:41N 50°20' W 125°27'213.2
2017-Aug-10 09:30N 50°18' W 125°25'816.4
2017-Aug-10 09:01N 50°11' W 125°22'611.6
2017-Aug-10 08:30N 50°06' W 125°17'611.9
2017-Aug-10 08:00N 50°00' W 125°13'612.9
2017-Aug-10 07:31N 49°56' W 125°06'713.1
2017-Aug-10 07:00N 49°51' W 124°58'612.3
2017-Aug-10 06:31N 49°47' W 124°52'612.7
2017-Aug-10 06:01N 49°42' W 124°45'612.6
2017-Aug-10 05:30N 49°37' W 124°39'612.9
2017-Aug-10 05:01N 49°32' W 124°33'612.5
2017-Aug-10 04:30N 49°28' W 124°25'712.6
2017-Aug-10 03:58N 49°25' W 124°16'612.6
2017-Aug-10 03:30N 49°24' W 124°07'812.5
2017-Aug-10 02:53N 49°22' W 123°56'512.7
2017-Aug-10 02:30N 49°22' W 123°48'712.9
2017-Aug-10 01:59N 49°22' W 123°38'612.8
2017-Aug-10 01:30N 49°20' W 123°29'612.8
2017-Aug-10 01:00N 49°19' W 123°19'612.8
2017-Aug-10 00:30N 49°19' W 123°09'3 5.4
2017-Aug-10 00:01N 49°17' W 123°06'0 0.2
2017-Aug-09 23:30N 49°17' W 123°07'0 0.0
2017-Aug-09 23:00N 49°17' W 123°07'0 0.0
2017-Aug-09 22:30N 49°17' W 123°07'0 0.0
2017-Aug-09 21:59N 49°17' W 123°07'0 0.0
2017-Aug-09 21:29N 49°17' W 123°07'0 0.0
2017-Aug-09 20:59N 49°17' W 123°07'0 0.0
2017-Aug-09 20:29N 49°17' W 123°07'0 0.0
2017-Aug-09 19:59N 49°17' W 123°07'0 0.0
2017-Aug-09 19:28N 49°17' W 123°07'0 0.0
2017-Aug-09 18:58N 49°17' W 123°07'0 0.0
2017-Aug-09 18:28N 49°17' W 123°07'0 0.0
2017-Aug-09 17:58N 49°17' W 123°07'0 0.0
2017-Aug-09 17:28N 49°17' W 123°07'0 0.0
2017-Aug-09 17:00N 49°17' W 123°07'0 0.0
2017-Aug-09 16:30N 49°17' W 123°07'0 0.0
2017-Aug-09 16:00N 49°17' W 123°07'0 0.0
2017-Aug-09 15:30N 49°17' W 123°07'0 0.0
2017-Aug-09 14:59N 49°17' W 123°07'0 0.0
2017-Aug-09 14:29N 49°17' W 123°07'0 0.0
2017-Aug-09 14:00N 49°17' W 123°07'0 0.9
2017-Aug-09 13:31N 49°18' W 123°06'4 7.3
2017-Aug-09 13:00N 49°19' W 123°12'5 9.1
2017-Aug-09 12:30N 49°18' W 123°19'5 9.3
2017-Aug-09 12:01N 49°19' W 123°26'5 9.3
2017-Aug-09 11:31N 49°19' W 123°33'5 9.2
2017-Aug-09 11:01N 49°19' W 123°40'5 9.2
2017-Aug-09 10:31N 49°20' W 123°47'5 9.3
2017-Aug-09 10:00N 49°21' W 123°54'4 9.1
2017-Aug-09 09:31N 49°22' W 124°00'5 9.2
2017-Aug-09 09:00N 49°23' W 124°07'4 7.1
2017-Aug-09 08:25N 49°24' W 124°13'2 5.8
2017-Aug-09 08:00N 49°25' W 124°17'3 6.3
2017-Aug-09 07:30N 49°26' W 124°22'3 6.4
2017-Aug-09 07:00N 49°28' W 124°26'4 8.7
2017-Aug-09 06:30N 49°31' W 124°31'5 9.5
2017-Aug-09 06:00N 49°34' W 124°35'5 9.7
2017-Aug-09 05:30N 49°38' W 124°40'5 9.5
2017-Aug-09 05:00N 49°41' W 124°45'5 9.6
2017-Aug-09 04:31N 49°45' W 124°50'510.2
2017-Aug-09 04:00N 49°49' W 124°56'611.9
2017-Aug-09 03:28N 49°53' W 125°03'612.9
2017-Aug-09 03:01N 49°57' W 125°09'  

Dump ship's entire track history